Time;durP1;ratioP1;P1;durP2;ratioP2;P2;SDS_P1;SDS_P2;PMS_P1;PMS_P2;Temp;Humidity;BMP_temperature;BMP_pressure;BME280_temperature;BME280_humidity;BME280_pressure;Samples;Min_cycle;Max_cycle;Signal;HPM_P1;HPM_P2
2022/10/27 15:00:30;;;;;;;30.20;7.88;;;;;;;;;;6317309;22;20095;-91
2022/10/27 15:02:58;;;;;;;31.17;7.15;;;;;;;;;;6306196;22;20022;-88
2022/10/27 15:05:24;;;;;;;31.58;9.35;;;;;;;;;;6332270;22;19994;-91
2022/10/27 15:07:53;;;;;;;33.60;8.95;;;;;;;;;;6319333;22;20078;-90
2022/10/27 15:10:19;;;;;;;30.75;8.05;;;;;;;;;;6317216;22;20043;-93
2022/10/27 15:12:49;;;;;;;30.15;7.95;;;;;;;;;;6332473;22;20460;-90
2022/10/27 15:15:15;;;;;;;35.42;9.80;;;;;;;;;;6332169;22;20003;-89
2022/10/27 15:17:41;;;;;;;34.03;8.95;;;;;;;;;;6328660;22;20073;-89
2022/10/27 15:20:11;;;;;;;36.55;8.40;;;;;;;;;;6331544;22;20003;-89
2022/10/27 15:22:37;;;;;;;34.60;8.73;;;;;;;;;;6331350;22;20007;-89
2022/10/27 15:25:04;;;;;;;28.95;8.30;;;;;;;;;;6330853;22;20057;-89
2022/10/27 15:27:32;;;;;;;36.72;7.97;;;;;;;;;;6331218;22;20077;-87
2022/10/27 15:29:59;;;;;;;24.10;7.65;;;;;;;;;;6331993;22;20002;-88
2022/10/27 15:32:38;;;;;;;23.47;7.67;;;;;;;;;;6333284;22;20074;-89
2022/10/27 15:35:22;;;;;;;27.25;8.05;;;;;;;;;;6332561;22;20073;-87
2022/10/27 15:37:48;;;;;;;25.90;7.22;;;;;;;;;;6332750;22;20073;-88
2022/10/27 15:40:34;;;;;;;30.27;7.78;;;;;;;;;;6332985;22;20378;-88
2022/10/27 15:43:00;;;;;;;36.08;7.43;;;;;;;;;;6333345;22;20089;-88
2022/10/27 15:45:29;;;;;;;37.95;8.15;;;;;;;;;;6333188;22;20025;-87
2022/10/27 15:47:55;;;;;;;27.27;7.55;;;;;;;;;;6332811;22;19999;-87
2022/10/27 15:50:21;;;;;;;22.02;7.82;;;;;;;;;;6332558;22;20002;-88
2022/10/27 15:52:47;;;;;;;26.35;7.97;;;;;;;;;;6332905;22;20026;-88
2022/10/27 15:55:26;;;;;;;33.85;7.60;;;;;;;;;;6332119;22;19995;-89
2022/10/27 15:57:53;;;;;;;31.25;7.93;;;;;;;;;;6332715;22;20321;-87
2022/10/27 16:00:24;;;;;;;31.58;7.00;;;;;;;;;;6317071;22;20019;-88
2022/10/27 16:03:01;;;;;;;29.08;7.65;;;;;;;;;;6332235;22;20011;-87
2022/10/27 16:05:30;;;;;;;31.02;7.35;;;;;;;;;;6334220;22;20316;-87
2022/10/27 16:08:20;;;;;;;32.65;7.78;;;;;;;;;;6332442;22;20409;-88
2022/10/27 16:10:49;;;;;;;30.27;8.05;;;;;;;;;;6321285;22;19998;-88
2022/10/27 16:13:17;;;;;;;25.75;8.02;;;;;;;;;;6333451;22;19995;-90
2022/10/27 16:15:44;;;;;;;28.70;8.27;;;;;;;;;;6333199;22;20006;-88
2022/10/27 16:18:11;;;;;;;28.08;8.50;;;;;;;;;;6334656;22;19995;-88
2022/10/27 16:20:42;;;;;;;22.55;7.97;;;;;;;;;;6334417;22;20092;-89
2022/10/27 16:23:12;;;;;;;26.70;7.57;;;;;;;;;;6333345;22;20018;-88
2022/10/27 16:25:39;;;;;;;23.13;7.68;;;;;;;;;;6333381;22;20002;-89
2022/10/27 16:28:10;;;;;;;21.83;7.85;;;;;;;;;;6333320;22;20334;-88
2022/10/27 16:30:36;;;;;;;39.25;8.95;;;;;;;;;;6333939;22;20005;-87
2022/10/27 16:33:03;;;;;;;32.72;9.05;;;;;;;;;;6333037;22;20003;-87
2022/10/27 16:35:32;;;;;;;30.27;8.50;;;;;;;;;;6334632;22;20339;-89
2022/10/27 16:37:59;;;;;;;28.30;7.50;;;;;;;;;;6333238;22;20088;-90
2022/10/27 16:40:26;;;;;;;28.33;7.67;;;;;;;;;;6334641;22;20488;-90
2022/10/27 16:42:52;;;;;;;24.67;7.25;;;;;;;;;;6332149;22;20327;-91
2022/10/27 16:45:19;;;;;;;32.63;9.10;;;;;;;;;;6333863;22;20082;-92
2022/10/27 16:47:46;;;;;;;29.92;9.30;;;;;;;;;;6333423;22;20030;-89
2022/10/27 16:50:12;;;;;;;27.95;8.45;;;;;;;;;;6334368;22;20006;-90
2022/10/27 16:52:38;;;;;;;22.73;8.07;;;;;;;;;;6332627;22;20007;-91
2022/10/27 16:55:08;;;;;;;29.05;8.60;;;;;;;;;;6333513;22;20052;-93
2022/10/27 16:57:37;;;;;;;43.50;8.20;;;;;;;;;;6332532;22;20439;-91
2022/10/27 17:00:04;;;;;;;37.80;8.48;;;;;;;;;;6334078;22;20056;-91
2022/10/27 17:02:30;;;;;;;33.78;7.82;;;;;;;;;;6308138;22;20022;-93
2022/10/27 17:04:56;;;;;;;28.55;8.15;;;;;;;;;;6335015;22;19999;-91
2022/10/27 17:07:22;;;;;;;26.13;7.35;;;;;;;;;;6335559;22;20199;-91
2022/10/27 17:09:51;;;;;;;35.55;9.18;;;;;;;;;;6308670;22;20003;-92
2022/10/27 17:12:17;;;;;;;25.95;8.43;;;;;;;;;;6329308;22;20028;-91
2022/10/27 17:14:43;;;;;;;25.35;8.13;;;;;;;;;;6345649;22;20497;-91
2022/10/27 17:17:09;;;;;;;25.05;8.00;;;;;;;;;;6308029;22;20044;-92
2022/10/27 17:19:35;;;;;;;22.65;7.95;;;;;;;;;;6306884;22;20003;-92
2022/10/27 17:22:02;;;;;;;29.00;7.68;;;;;;;;;;6308530;22;20003;-92
2022/10/27 17:24:30;;;;;;;22.35;8.43;;;;;;;;;;6309648;22;20066;-92
2022/10/27 17:26:56;;;;;;;25.63;7.40;;;;;;;;;;6307190;22;20010;-92
2022/10/27 17:29:22;;;;;;;30.90;8.50;;;;;;;;;;6308325;22;20185;-90
2022/10/27 17:31:48;;;;;;;25.58;7.40;;;;;;;;;;6334128;22;20009;-91
2022/10/27 17:34:14;;;;;;;28.77;8.25;;;;;;;;;;6333990;22;20069;-92
2022/10/27 17:36:40;;;;;;;27.92;7.50;;;;;;;;;;6333793;22;20006;-91
2022/10/27 17:39:06;;;;;;;21.90;7.47;;;;;;;;;;6306568;22;19999;-90
2022/10/27 17:41:33;;;;;;;23.45;8.10;;;;;;;;;;6307657;22;20007;-90
2022/10/27 17:43:59;;;;;;;25.38;7.50;;;;;;;;;;6308293;22;20017;-90
2022/10/27 17:46:26;;;;;;;30.13;8.00;;;;;;;;;;6306737;22;20002;-90
2022/10/27 17:48:56;;;;;;;22.10;7.50;;;;;;;;;;6333651;22;20181;-91
2022/10/27 17:51:23;;;;;;;22.20;7.25;;;;;;;;;;6334851;22;20378;-91
2022/10/27 17:53:49;;;;;;;21.83;7.32;;;;;;;;;;6305953;22;20038;-91
2022/10/27 17:56:20;;;;;;;27.70;7.55;;;;;;;;;;6334004;22;20003;-90
2022/10/27 17:58:46;;;;;;;25.55;8.00;;;;;;;;;;6332734;22;20355;-90
2022/10/27 18:01:14;;;;;;;26.80;7.93;;;;;;;;;;6333858;22;20007;-91
2022/10/27 18:03:40;;;;;;;28.00;7.90;;;;;;;;;;6306118;22;20014;-92
2022/10/27 18:06:08;;;;;;;28.98;8.73;;;;;;;;;;6306176;22;20435;-91
2022/10/27 18:08:34;;;;;;;29.70;8.77;;;;;;;;;;6304433;22;20456;-90
2022/10/27 18:11:03;;;;;;;22.33;7.68;;;;;;;;;;6334310;22;19999;-91
2022/10/27 18:13:30;;;;;;;23.00;7.47;;;;;;;;;;6306539;22;20005;-92
2022/10/27 18:15:56;;;;;;;23.58;7.80;;;;;;;;;;6305076;22;20006;-90
2022/10/27 18:18:22;;;;;;;24.13;7.43;;;;;;;;;;6305678;22;20445;-90
2022/10/27 18:20:48;;;;;;;27.05;8.13;;;;;;;;;;6333361;22;20071;-91
2022/10/27 18:23:14;;;;;;;23.70;8.07;;;;;;;;;;6332215;22;20038;-90
2022/10/27 18:25:40;;;;;;;32.42;8.80;;;;;;;;;;6332724;22;20001;-90
2022/10/27 18:28:06;;;;;;;26.15;7.70;;;;;;;;;;6306097;22;20044;-91
2022/10/27 18:30:32;;;;;;;28.08;8.48;;;;;;;;;;6307371;22;20056;-91
2022/10/27 18:32:58;;;;;;;26.55;8.45;;;;;;;;;;6307142;22;20010;-90
2022/10/27 18:35:24;;;;;;;24.10;8.48;;;;;;;;;;6306201;22;20381;-91
2022/10/27 18:37:50;;;;;;;27.15;8.73;;;;;;;;;;6305857;22;20443;-90
2022/10/27 18:40:16;;;;;;;28.63;8.20;;;;;;;;;;6305274;22;20007;-91
2022/10/27 18:42:42;;;;;;;20.83;6.75;;;;;;;;;;6304474;22;20426;-89
2022/10/27 18:45:09;;;;;;;20.27;7.30;;;;;;;;;;6304327;22;20068;-90
2022/10/27 18:47:35;;;;;;;18.77;7.82;;;;;;;;;;6305158;22;20007;-89
2022/10/27 18:50:01;;;;;;;27.02;8.18;;;;;;;;;;6334164;22;19998;-89
2022/10/27 18:52:27;;;;;;;27.38;7.32;;;;;;;;;;6305741;22;20457;-89
2022/10/27 18:54:53;;;;;;;20.42;6.57;;;;;;;;;;6332592;22;20003;-90
2022/10/27 18:57:19;;;;;;;22.13;7.20;;;;;;;;;;6333260;22;19998;-91
2022/10/27 18:59:45;;;;;;;28.45;7.68;;;;;;;;;;6334138;22;20007;-89
2022/10/27 19:02:11;;;;;;;27.75;7.68;;;;;;;;;;6333873;22;20030;-90
2022/10/27 19:04:40;;;;;;;28.80;8.82;;;;;;;;;;6332988;22;19999;-90
2022/10/27 19:07:06;;;;;;;;;;;;;;;;;;6334417;22;19999;-89
2022/10/27 19:09:32;;;;;;;19.00;7.75;;;;;;;;;;6334440;22;20017;-90
2022/10/27 19:11:58;;;;;;;24.60;7.82;;;;;;;;;;6333698;22;19999;-91
2022/10/27 19:14:24;;;;;;;28.08;7.90;;;;;;;;;;6342146;22;19998;-89
2022/10/27 19:16:52;;;;;;;25.75;7.47;;;;;;;;;;6351814;22;20022;-92
2022/10/27 19:19:18;;;;;;;24.48;9.57;;;;;;;;;;6305012;22;20030;-90
2022/10/27 19:21:44;;;;;;;28.02;9.55;;;;;;;;;;6332287;22;19999;-89
2022/10/27 19:24:11;;;;;;;28.63;9.65;;;;;;;;;;6331204;22;20003;-90
2022/10/27 19:26:38;;;;;;;27.50;9.05;;;;;;;;;;6331913;22;20001;-90
2022/10/27 19:29:04;;;;;;;33.90;9.70;;;;;;;;;;6304970;22;20024;-90
2022/10/27 19:31:35;;;;;;;39.65;10.60;;;;;;;;;;6306064;22;20003;-90
2022/10/27 19:34:01;;;;;;;36.47;11.90;;;;;;;;;;6336022;22;19994;-91
2022/10/27 19:36:28;;;;;;;29.17;10.98;;;;;;;;;;6341093;22;20021;-90
2022/10/27 19:38:54;;;;;;;34.83;12.23;;;;;;;;;;6341011;22;20006;-91
2022/10/27 19:41:22;;;;;;;32.33;10.80;;;;;;;;;;6344650;22;19999;-90
2022/10/27 19:43:55;;;;;;;29.67;10.70;;;;;;;;;;6313526;22;20511;-90
2022/10/27 19:46:21;;;;;;;28.85;9.63;;;;;;;;;;6335532;22;20391;-91
2022/10/27 19:48:53;;;;;;;30.77;10.68;;;;;;;;;;6306893;22;20041;-91
2022/10/27 19:51:21;;;;;;;28.33;9.75;;;;;;;;;;6334833;22;20401;-90
2022/10/27 19:53:47;;;;;;;35.63;12.23;;;;;;;;;;6306012;22;20006;-90
2022/10/27 19:56:14;;;;;;;44.22;13.48;;;;;;;;;;6334694;22;20006;-91
2022/10/27 19:58:40;;;;;;;39.47;13.43;;;;;;;;;;6334540;22;20003;-90
2022/10/27 20:01:37;;;;;;;37.25;13.77;;;;;;;;;;6327245;22;20011;-90
2022/10/27 20:04:04;;;;;;;30.02;10.68;;;;;;;;;;6315279;22;20019;-91
2022/10/27 20:06:30;;;;;;;28.77;9.20;;;;;;;;;;6335634;22;19995;-90
2022/10/27 20:08:56;;;;;;;32.10;10.15;;;;;;;;;;6334393;22;20025;-90
2022/10/27 20:11:22;;;;;;;32.72;10.40;;;;;;;;;;6334282;22;20247;-90
2022/10/27 20:13:51;;;;;;;40.67;11.13;;;;;;;;;;6331718;22;20444;-91
2022/10/27 20:16:19;;;;;;;34.90;11.90;;;;;;;;;;6333884;22;20005;-90
2022/10/27 20:18:45;;;;;;;38.22;12.82;;;;;;;;;;6333051;22;20003;-92
2022/10/27 20:21:13;;;;;;;30.80;10.68;;;;;;;;;;6333044;22;20002;-90
2022/10/27 20:23:40;;;;;;;26.40;9.73;;;;;;;;;;6334697;22;20010;-90
2022/10/27 20:26:06;;;;;;;29.38;10.25;;;;;;;;;;6334893;22;20090;-90
2022/10/27 20:28:33;;;;;;;28.60;8.80;;;;;;;;;;6333692;22;20007;-89
2022/10/27 20:31:03;;;;;;;30.42;10.57;;;;;;;;;;6335053;22;20434;-90
2022/10/27 20:33:30;;;;;;;28.83;10.30;;;;;;;;;;6335049;22;20368;-90
2022/10/27 20:36:04;;;;;;;36.45;10.60;;;;;;;;;;6333032;22;20007;-90
2022/10/27 20:38:32;;;;;;;36.80;10.45;;;;;;;;;;6335573;22;20022;-90
2022/10/27 20:41:02;;;;;;;32.77;10.23;;;;;;;;;;6334220;22;20005;-90
2022/10/27 20:43:28;;;;;;;33.35;10.43;;;;;;;;;;6332509;22;20489;-90
2022/10/27 20:45:54;;;;;;;33.60;10.43;;;;;;;;;;6332189;22;20240;-91
2022/10/27 20:48:25;;;;;;;33.22;9.55;;;;;;;;;;6333948;22;20003;-91
2022/10/27 20:51:00;;;;;;;27.15;9.35;;;;;;;;;;6332453;22;20068;-90
2022/10/27 20:53:27;;;;;;;35.50;9.25;;;;;;;;;;6332565;22;20359;-92
2022/10/27 20:55:53;;;;;;;37.35;10.20;;;;;;;;;;6333812;22;19995;-91
2022/10/27 20:58:20;;;;;;;31.20;9.55;;;;;;;;;;6332997;22;20007;-91
2022/10/27 21:00:46;;;;;;;33.70;10.13;;;;;;;;;;6331307;22;20011;-91
2022/10/27 21:03:13;;;;;;;33.90;9.02;;;;;;;;;;6332650;22;20059;-89
2022/10/27 21:05:39;;;;;;;42.85;9.95;;;;;;;;;;6332369;22;20007;-90
2022/10/27 21:08:05;;;;;;;38.85;9.38;;;;;;;;;;6334387;22;20040;-89
2022/10/27 21:10:49;;;;;;;32.28;9.57;;;;;;;;;;6334973;22;20006;-90
2022/10/27 21:13:15;;;;;;;39.15;9.93;;;;;;;;;;6332291;22;20443;-88
2022/10/27 21:15:41;;;;;;;32.83;10.00;;;;;;;;;;6331453;22;20086;-90
2022/10/27 21:18:08;;;;;;;36.72;9.82;;;15.60;99.90;;;;;;6343502;22;20011;-90
2022/10/27 21:20:35;;;;;;;29.30;9.13;;;;;;;;;;6347576;22;20006;-89
2022/10/27 21:23:01;;;;;;;33.90;9.35;;;;;;;;;;6334050;22;20014;-91
2022/10/27 21:25:27;;;;;;;31.52;8.30;;;;;;;;;;6333285;22;19999;-90
2022/10/27 21:27:53;;;;;;;28.23;8.80;;;15.60;99.90;;;;;;6330817;22;20002;-89
2022/10/27 21:30:20;;;;;;;26.80;8.10;;;;;;;;;;6332984;22;20026;-91
2022/10/27 21:32:49;;;;;;;32.55;8.20;;;15.50;99.90;;;;;;6331368;22;20006;-91
2022/10/27 21:35:15;;;;;;;20.20;7.07;;;;;;;;;;6331138;22;20002;-90
2022/10/27 21:37:41;;;;;;;36.83;8.40;;;15.40;99.90;;;;;;6330702;22;20007;-90
2022/10/27 21:40:08;;;;;;;30.23;8.35;;;16.10;99.90;;;;;;6332448;22;20006;-91
2022/10/27 21:42:34;;;;;;;39.97;9.02;;;;;;;;;;6333941;22;20011;-91
2022/10/27 21:45:00;;;;;;;37.50;8.70;;;;;;;;;;6333162;22;19999;-89
2022/10/27 21:47:29;;;;;;;31.30;8.50;;;;;;;;;;6331569;22;20255;-90
2022/10/27 21:50:10;;;;;;;33.95;8.65;;;15.30;99.90;;;;;;6333958;22;20003;-89
2022/10/27 21:52:50;;;;;;;23.33;8.57;;;15.20;99.90;;;;;;6335060;22;19995;-90
2022/10/27 21:55:19;;;;;;;40.58;9.30;;;17.00;99.90;;;;;;6331913;22;20007;-89
2022/10/27 21:57:48;;;;;;;25.92;8.45;;;15.10;99.90;;;;;;6331277;22;20011;-91
2022/10/27 22:00:21;;;;;;;32.58;8.43;;;15.20;99.90;;;;;;6333458;22;20011;-90
2022/10/27 22:02:51;;;;;;;35.58;9.15;;;;;;;;;;6306207;22;20022;-89
2022/10/27 22:05:22;;;;;;;34.97;8.75;;;15.30;99.90;;;;;;6333921;22;20003;-91
2022/10/27 22:07:48;;;;;;;33.15;8.70;;;;;;;;;;6332029;22;20008;-90
2022/10/27 22:10:14;;;;;;;35.92;7.97;;;;;;;;;;6332667;22;20003;-90
2022/10/27 22:12:40;;;;;;;37.65;7.97;;;;;;;;;;6332543;22;20046;-89
2022/10/27 22:15:07;;;;;;;33.75;8.63;;;15.10;99.90;;;;;;6305809;22;20071;-89
2022/10/27 22:17:35;;;;;;;28.65;7.72;;;13.30;99.90;;;;;;6307317;22;20017;-89
2022/10/27 22:20:02;;;;;;;34.85;8.00;;;;;;;;;;6342303;22;19999;-90
2022/10/27 22:22:28;;;;;;;28.95;7.93;;;;;;;;;;6342686;22;20249;-89
2022/10/27 22:24:54;;;;;;;24.90;8.50;;;;;;;;;;6345617;22;20003;-91
2022/10/27 22:27:20;;;;;;;45.58;9.07;;;;;;;;;;6335462;22;20026;-90
2022/10/27 22:29:46;;;;;;;28.40;8.82;;;;;;;;;;6332970;22;20033;-91
2022/10/27 22:32:12;;;;;;;25.75;7.65;;;;;;;;;;6333143;22;19994;-91
2022/10/27 22:34:38;;;;;;;30.50;8.00;;;;;;;;;;6333157;22;20003;-91
2022/10/27 22:37:04;;;;;;;27.25;7.85;;;;;;;;;;6305247;22;20007;-90
2022/10/27 22:39:30;;;;;;;23.38;7.30;;;;;;;;;;6304005;22;20002;-88
2022/10/27 22:41:56;;;;;;;33.88;9.05;;;;;;;;;;6332562;22;20047;-89
2022/10/27 22:44:25;;;;;;;32.00;7.30;;;14.80;99.90;;;;;;6332897;22;20507;-88
2022/10/27 22:46:51;;;;;;;23.58;7.70;;;;;;;;;;6333280;22;20002;-89
2022/10/27 22:49:17;;;;;;;31.38;8.35;;;;;;;;;;6305482;22;20002;-89
2022/10/27 22:51:43;;;;;;;29.95;8.75;;;;;;;;;;6306044;22;20010;-90
2022/10/27 22:54:09;;;;;;;39.58;8.52;;;;;;;;;;6305799;22;20106;-89
2022/10/27 22:56:35;;;;;;;33.72;8.55;;;;;;;;;;6334682;22;19999;-91
2022/10/27 22:59:03;;;;;;;30.65;8.98;;;14.90;99.90;;;;;;6305488;22;20330;-89
2022/10/27 23:01:35;;;;;;;34.20;9.38;;;14.90;99.90;;;;;;6333459;22;20523;-90
2022/10/27 23:04:02;;;;;;;36.83;9.10;;;15.00;99.90;;;;;;6333133;22;20007;-89
2022/10/27 23:06:31;;;;;;;37.20;9.70;;;15.00;99.90;;;;;;6333421;22;20264;-89
2022/10/27 23:08:59;;;;;;;34.40;9.20;;;15.00;99.90;;;;;;6308274;22;20030;-89
2022/10/27 23:11:28;;;;;;;36.40;9.13;;;14.90;99.90;;;;;;6308930;22;20006;-90
2022/10/27 23:13:54;;;;;;;25.98;8.43;;;;;;;;;;6336722;22;19999;-89
2022/10/27 23:16:21;;;;;;;33.60;9.35;;;;;;;;;;6337059;22;20003;-91
2022/10/27 23:18:47;;;;;;;32.00;9.43;;;;;;;;;;6308724;22;20342;-90
2022/10/27 23:21:14;;;;;;;37.60;10.27;;;14.80;99.90;;;;;;6309469;22;20002;-90
2022/10/27 23:23:42;;;;;;;30.05;9.07;;;14.80;99.90;;;;;;6325655;22;20017;-89
2022/10/27 23:26:15;;;;;;;29.83;9.30;;;14.80;99.90;;;;;;6349489;22;19995;-90
2022/10/27 23:28:41;;;;;;;39.08;9.88;;;;;;;;;;6336462;22;20066;-91
2022/10/27 23:31:07;;;;;;;33.70;9.88;;;;;;;;;;6337786;22;20327;-92
2022/10/27 23:33:33;;;;;;;29.27;8.45;;;;;;;;;;6337087;22;20002;-90
2022/10/27 23:36:00;;;;;;;31.25;9.60;;;14.70;99.90;;;;;;6309006;22;20189;-90
2022/10/27 23:38:27;;;;;;;25.13;9.00;;;;;;;;;;6336177;22;20009;-91
2022/10/27 23:40:55;;;;;;;43.50;9.32;;;14.70;99.90;;;;;;6337067;22;20217;-90
2022/10/27 23:43:21;;;;;;;44.80;9.18;;;;;;;;;;6308915;22;20011;-91
2022/10/27 23:45:47;;;;;;;29.00;8.63;;;;;;;;;;6337091;22;19995;-91
2022/10/27 23:48:14;;;;;;;37.00;9.90;;;14.60;99.90;;;;;;6335916;22;20079;-90
2022/10/27 23:50:42;;;;;;;40.95;9.57;;;14.60;99.90;;;;;;6309063;22;20005;-91
2022/10/27 23:53:08;;;;;;;49.85;11.23;;;;;;;;;;6310029;22;20011;-91
2022/10/27 23:55:34;;;;;;;46.28;10.70;;;;;;;;;;6308521;22;20423;-90
2022/10/27 23:58:00;;;;;;;39.30;10.05;;;14.40;99.90;;;;;;6309086;22;20276;-91
